Terminal Aerodrome Forecast
Issued by NWS

Home | Current Version | Previous Version | Text Only | Print | Product List | Glossary On
Versions: 1 2 3 4 5 6 7 8 9 10 11 12 13 14 15 16 17 18 19 20 21 22 23 24 25
642
FTUS42 KFFC 271526 AAA
TAFPDK
TAF AMD
KPDK 271526Z 2715/2812 VRB05KT P6SM SCT030 SCT100
     FM271800 10008KT P6SM VCSH BKN035 BKN120
     FM272100 10010KT P6SM -SHRA BKN040
     FM280100 07007KT 6SM -SHRA SCT012 OVC025
     FM280600 06010KT 3SM -SHRA BR BKN005 OVC012=

USA.gov is the U.S. government's official web portal to all federal, state and local government web resources and services.